Time;durP1;ratioP1;P1;durP2;ratioP2;P2;SDS_P1;SDS_P2;PMS_P1;PMS_P2;Temp;Humidity;BMP_temperature;BMP_pressure;BME280_temperature;BME280_humidity;BME280_pressure;Samples;Min_cycle;Max_cycle;Signal;HPM_P1;HPM_P2
2023/10/02 00:01:58;;;;;;;22.05;8.45;;;14.00;99.90;;;;;;5091333;28;20024;-66
2023/10/02 00:04:25;;;;;;;19.67;8.30;;;14.00;99.90;;;;;;5083286;28;20020;-67
2023/10/02 00:07:05;;;;;;;25.02;7.88;;;14.00;99.90;;;;;;5086017;28;20129;-67
2023/10/02 00:09:41;;;;;;;25.80;8.38;;;13.90;99.90;;;;;;5088148;28;20045;-65
2023/10/02 00:12:11;;;;;;;18.58;8.55;;;13.90;99.90;;;;;;5087964;28;20024;-65
2023/10/02 00:14:38;;;;;;;21.52;8.05;;;14.00;99.90;;;;;;5086263;28;20313;-65
2023/10/02 00:17:06;;;;;;;19.63;7.20;;;13.90;99.90;;;;;;5103717;28;20035;-63
2023/10/02 00:19:38;;;;;;;23.05;8.48;;;13.90;99.90;;;;;;5091953;28;20028;-68
2023/10/02 00:22:09;;;;;;;18.10;8.00;;;13.90;99.90;;;;;;5095435;28;20118;-66
2023/10/02 00:24:39;;;;;;;18.05;8.18;;;14.00;99.90;;;;;;5074781;28;20038;-65
2023/10/02 00:27:09;;;;;;;19.40;7.70;;;14.00;99.90;;;;;;5094339;28;20036;-65
2023/10/02 00:29:51;;;;;;;18.90;8.35;;;13.90;99.90;;;;;;5090133;28;20050;-65
2023/10/02 00:32:19;;;;;;;19.63;8.05;;;14.00;99.90;;;;;;5081277;28;20020;-63
2023/10/02 00:34:46;;;;;;;18.65;8.50;;;14.00;99.90;;;;;;5069451;28;20026;-67
2023/10/02 00:37:15;;;;;;;19.48;7.75;;;14.00;99.90;;;;;;5088632;28;20032;-67
2023/10/02 00:39:41;;;;;;;26.63;8.80;;;14.00;99.90;;;;;;5090959;28;20020;-64
2023/10/02 00:42:24;;;;;;;18.52;7.90;;;13.90;99.90;;;;;;5089590;28;20073;-66
2023/10/02 00:44:52;;;;;;;20.23;7.68;;;13.80;99.90;;;;;;5103800;28;20473;-65
2023/10/02 00:47:40;;;;;;;21.88;8.85;;;13.80;99.90;;;;;;5093984;28;20024;-68
2023/10/02 00:50:22;;;;;;;20.00;7.97;;;13.80;99.90;;;;;;5085607;28;20043;-64
2023/10/02 00:52:54;;;;;;;17.90;8.23;;;13.80;99.90;;;;;;5089940;28;20024;-64
2023/10/02 00:55:30;;;;;;;22.95;8.73;;;13.70;99.90;;;;;;5084217;28;20097;-65
2023/10/02 00:57:56;;;;;;;18.30;9.05;;;13.70;99.90;;;;;;5090109;28;20030;-65
2023/10/02 01:00:36;;;;;;;19.33;7.90;;;13.70;99.90;;;;;;5090586;28;20017;-65
2023/10/02 01:03:14;;;;;;;19.90;8.05;;;13.70;99.90;;;;;;5076575;28;20118;-59
2023/10/02 01:05:47;;;;;;;20.75;7.90;;;13.70;99.90;;;;;;5080071;28;20028;-66
2023/10/02 01:08:42;;;;;;;20.45;8.63;;;13.60;99.90;;;;;;5088983;28;20027;-65
2023/10/02 01:11:15;;;;;;;21.58;7.47;;;13.60;99.90;;;;;;5080692;28;20024;-66
2023/10/02 01:13:41;;;;;;;21.05;9.25;;;13.60;99.90;;;;;;5087240;28;20048;-62
2023/10/02 01:16:08;;;;;;;17.60;8.23;;;13.60;99.90;;;;;;5088053;28;20031;-65
2023/10/02 01:18:38;;;;;;;21.98;8.63;;;13.50;99.90;;;;;;5087162;28;20029;-67
2023/10/02 01:21:14;;;;;;;20.23;7.97;;;13.50;99.90;;;;;;5085281;28;20032;-66
2023/10/02 01:24:07;;;;;;;18.48;7.72;;;13.50;99.90;;;;;;5086269;28;20039;-67
2023/10/02 01:26:37;;;;;;;21.05;8.43;;;13.50;99.90;;;;;;5066838;28;20394;-65
2023/10/02 01:29:04;;;;;;;20.30;8.20;;;13.60;99.90;;;;;;5088366;28;20095;-66
2023/10/02 01:31:42;;;;;;;24.55;9.48;;;13.60;99.90;;;;;;5086292;28;20046;-66
2023/10/02 01:34:32;;;;;;;24.20;8.70;;;13.60;99.90;;;;;;5083879;28;20016;-66
2023/10/02 01:36:57;;;;;;;21.63;8.70;;;13.60;99.90;;;;;;5086201;28;20031;-65
2023/10/02 01:39:22;;;;;;;23.50;8.43;;;13.60;99.90;;;;;;5084598;28;20021;-65
2023/10/02 01:41:54;;;;;;;22.70;8.90;;;13.60;99.90;;;;;;5085465;28;20119;-63
2023/10/02 01:44:22;;;;;;;22.98;8.07;;;13.50;99.90;;;;;;5068162;28;20485;-67
2023/10/02 01:46:49;;;;;;;20.77;8.45;;;13.50;99.90;;;;;;5088142;28;20036;-65
2023/10/02 01:49:24;;;;;;;19.27;7.93;;;13.50;99.90;;;;;;5083649;28;20033;-65
2023/10/02 01:51:50;;;;;;;26.33;8.88;;;13.50;99.90;;;;;;5088122;28;20526;-66
2023/10/02 01:54:16;;;;;;;20.40;10.30;;;13.40;99.90;;;;;;5079885;28;20016;-65
2023/10/02 01:56:45;;;;;;;28.52;9.82;;;13.40;99.90;;;;;;5082719;28;20046;-66
2023/10/02 01:59:14;;;;;;;20.35;8.15;;;13.40;99.90;;;;;;5084818;28;20104;-65
2023/10/02 02:01:51;;;;;;;24.08;7.38;;;13.30;99.90;;;;;;5086298;28;20081;-66
2023/10/02 02:04:21;;;;;;;20.63;8.27;;;13.30;99.90;;;;;;5085733;28;20023;-68
2023/10/02 02:06:55;;;;;;;19.05;7.88;;;13.30;99.90;;;;;;5084075;28;20131;-65
2023/10/02 02:09:26;;;;;;;19.80;9.48;;;13.20;99.90;;;;;;5079652;28;20103;-65
2023/10/02 02:12:05;;;;;;;22.92;9.10;;;13.20;99.90;;;;;;5073693;28;20420;-65
2023/10/02 02:14:51;;;;;;;23.08;8.13;;;13.20;99.90;;;;;;5088303;28;20051;-66
2023/10/02 02:17:19;;;;;;;26.05;9.88;;;13.20;99.90;;;;;;5088593;28;20747;-65
2023/10/02 02:19:49;;;;;;;24.92;9.10;;;13.20;99.90;;;;;;5085661;28;20552;-61
2023/10/02 02:22:23;;;;;;;21.83;8.85;;;13.20;99.90;;;;;;5083053;28;20477;-66
2023/10/02 02:24:49;;;;;;;21.70;9.38;;;13.30;99.90;;;;;;5082107;28;20028;-66
2023/10/02 02:27:18;;;;;;;22.20;8.60;;;13.30;99.90;;;;;;5080660;28;20053;-66
2023/10/02 02:29:46;;;;;;;24.25;8.50;;;13.30;99.90;;;;;;5085114;28;20013;-65
2023/10/02 02:32:11;;;;;;;22.63;8.40;;;13.20;99.90;;;;;;5089874;28;20529;-65
2023/10/02 02:34:37;;;;;;;22.63;9.07;;;13.20;99.90;;;;;;5084061;28;20116;-67
2023/10/02 02:37:06;;;;;;;19.40;8.48;;;13.20;99.90;;;;;;5087929;28;20019;-65
2023/10/02 02:39:37;;;;;;;24.85;9.48;;;13.20;99.90;;;;;;5085472;28;20766;-66
2023/10/02 02:44:45;;;;;;;18.98;8.98;;;13.20;99.90;;;;;;5088035;28;20119;-64
2023/10/02 02:47:12;;;;;;;19.80;8.82;;;13.20;99.90;;;;;;5089196;28;20047;-66
2023/10/02 02:49:48;;;;;;;24.80;10.02;;;13.20;99.90;;;;;;5071149;28;20017;-66
2023/10/02 02:52:32;;;;;;;21.73;9.68;;;13.20;99.90;;;;;;5091188;28;20115;-66
2023/10/02 02:54:59;;;;;;;20.58;9.63;;;13.20;99.90;;;;;;5088534;28;20028;-65
2023/10/02 02:57:27;;;;;;;21.15;8.65;;;13.20;99.90;;;;;;5087547;28;20039;-65
2023/10/02 03:00:29;;;;;;;26.05;9.27;;;13.20;99.90;;;;;;5090906;28;20060;-66
2023/10/02 03:02:45;;;;;;;20.85;8.50;;;13.20;99.90;;;;;;5090340;28;20115;-66
2023/10/02 03:05:12;;;;;;;18.30;8.18;;;13.10;99.90;;;;;;5086046;28;20036;-65
2023/10/02 03:07:41;;;;;;;21.10;9.32;;;13.10;99.90;;;;;;5073855;28;20028;-65
2023/10/02 03:10:11;;;;;;;23.80;9.45;;;13.10;99.90;;;;;;5091515;28;20035;-66
2023/10/02 03:12:44;;;;;;;20.60;9.18;;;13.10;99.90;;;;;;5086953;28;20080;-65
2023/10/02 03:15:15;;;;;;;24.65;9.18;;;13.10;99.90;;;;;;5093274;28;20016;-65
2023/10/02 03:17:44;;;;;;;26.98;9.98;;;13.10;99.90;;;;;;5086140;28;20119;-66
2023/10/02 03:20:22;;;;;;;24.92;9.10;;;13.10;99.90;;;;;;5074371;28;20104;-65
2023/10/02 03:22:54;;;;;;;22.38;8.00;;;13.10;99.90;;;;;;5088779;28;20090;-65
2023/10/02 03:27:55;;;;;;;20.88;9.07;;;13.20;99.90;;;;;;5092768;28;20023;-64
2023/10/02 03:30:38;;;;;;;15.77;7.40;;;13.20;99.90;;;;;;5090238;28;20066;-65
2023/10/02 03:33:17;;;;;;;20.65;8.15;;;13.30;99.90;;;;;;5087603;28;20032;-63
2023/10/02 03:35:56;;;;;;;15.65;7.13;;;13.20;99.90;;;;;;5092945;28;20490;-66
2023/10/02 03:38:23;;;;;;;19.67;9.15;;;13.20;99.90;;;;;;5090646;28;20026;-65
2023/10/02 03:40:54;;;;;;;25.73;9.35;;;13.20;99.90;;;;;;5086245;28;20027;-65
2023/10/02 03:43:34;;;;;;;20.63;8.68;;;13.20;99.90;;;;;;5088846;28;20020;-65
2023/10/02 03:46:06;;;;;;;19.55;8.32;;;13.20;99.90;;;;;;5090822;28;20024;-63
2023/10/02 03:48:36;;;;;;;24.75;9.30;;;13.20;99.90;;;;;;5090601;28;20034;-65
2023/10/02 03:51:06;;;;;;;25.50;7.95;;;13.20;99.90;;;;;;5090398;28;20048;-64
2023/10/02 03:53:33;;;;;;;24.60;10.25;;;13.20;99.90;;;;;;5071412;28;20032;-66
2023/10/02 03:58:52;;;;;;;23.13;8.45;;;13.10;99.90;;;;;;5091041;28;20051;-67
2023/10/02 04:01:28;;;;;;;21.88;7.82;;;13.10;99.90;;;;;;5088525;28;20264;-66
2023/10/02 04:04:11;;;;;;;21.55;9.07;;;13.10;99.90;;;;;;5090075;28;20030;-66
2023/10/02 04:06:37;;;;;;;20.90;8.85;;;13.10;99.90;;;;;;5087179;27;20409;-64
2023/10/02 04:09:23;;;;;;;23.40;8.57;;;13.00;99.90;;;;;;5089850;28;20042;-65
2023/10/02 04:11:50;;;;;;;20.52;8.48;;;13.00;99.90;;;;;;5079651;28;20028;-60
2023/10/02 04:14:31;;;;;;;22.17;9.02;;;13.00;99.90;;;;;;5090899;28;20020;-66
2023/10/02 04:19:47;;;;;;;15.45;7.68;;;12.90;99.90;;;;;;5084144;28;20102;-65
2023/10/02 04:22:19;;;;;;;21.40;7.82;;;12.90;99.90;;;;;;5088628;28;20032;-65
2023/10/02 04:25:04;;;;;;;26.70;10.45;;;12.90;99.90;;;;;;5082225;28;20036;-66
2023/10/02 04:28:00;;;;;;;26.25;9.77;;;12.90;99.90;;;;;;5087957;28;20052;-65
2023/10/02 04:30:20;;;;;;;22.30;9.60;;;12.90;99.90;;;;;;5088502;28;20028;-65
2023/10/02 04:32:51;;;;;;;19.58;7.95;;;12.90;99.90;;;;;;5085193;28;20478;-66
2023/10/02 04:38:08;;;;;;;24.73;8.90;;;12.80;99.90;;;;;;5091594;28;20039;-65
2023/10/02 04:40:44;;;;;;;19.02;8.30;;;12.80;99.90;;;;;;5090616;28;20020;-65
2023/10/02 04:45:44;;;;;;;22.67;8.65;;;12.80;99.90;;;;;;5090691;28;20056;-65
2023/10/02 04:48:10;;;;;;;27.05;9.23;;;12.80;99.90;;;;;;5087376;28;20469;-66
2023/10/02 04:50:45;;;;;;;16.85;8.13;;;12.80;99.90;;;;;;5084397;28;20029;-65
2023/10/02 04:55:43;;;;;;;17.88;8.00;;;12.90;99.90;;;;;;5089995;28;20059;-65
2023/10/02 04:58:14;;;;;;;20.38;8.52;;;12.90;99.90;;;;;;5084894;28;20031;-65
2023/10/02 05:03:26;;;;;;;23.52;9.20;;;12.90;99.90;;;;;;5082364;28;20059;-67
2023/10/02 05:05:53;;;;;;;24.77;9.63;;;13.00;99.90;;;;;;5086486;28;20509;-65
2023/10/02 05:08:33;;;;;;;20.55;8.90;;;13.00;99.90;;;;;;5089936;28;20016;-66
2023/10/02 05:11:06;;;;;;;19.10;8.65;;;13.00;99.90;;;;;;5089076;28;20020;-65
2023/10/02 05:16:29;;;;;;;20.10;8.55;;;13.00;99.90;;;;;;5089275;28;20051;-67
2023/10/02 05:18:56;;;;;;;26.10;9.10;;;13.00;99.90;;;;;;5089024;28;20473;-65
2023/10/02 05:21:35;;;;;;;22.05;9.43;;;13.00;99.90;;;;;;5081977;28;20043;-64
2023/10/02 05:24:02;;;;;;;20.25;7.97;;;13.00;99.90;;;;;;5088404;28;20036;-65
2023/10/02 05:26:36;;;;;;;19.73;8.85;;;13.00;99.90;;;;;;5090751;28;20024;-64
2023/10/02 05:29:07;;;;;;;21.13;9.25;;;13.00;99.90;;;;;;5084033;28;20025;-63
2023/10/02 05:31:40;;;;;;;20.42;8.68;;;13.00;99.90;;;;;;5090219;28;20050;-64
2023/10/02 05:34:22;;;;;;;19.70;8.27;;;13.10;99.90;;;;;;5080027;28;20019;-65
2023/10/02 05:39:31;;;;;;;22.02;8.07;;;13.10;99.90;;;;;;5090873;28;20020;-64
2023/10/02 05:42:05;;;;;;;22.70;9.30;;;13.10;99.90;;;;;;5088975;28;20031;-65
2023/10/02 05:44:35;;;;;;;25.25;9.45;;;13.10;99.90;;;;;;5087894;28;20028;-64
2023/10/02 05:47:05;;;;;;;22.80;8.65;;;13.10;99.90;;;;;;5088048;28;20020;-65
2023/10/02 05:49:31;;;;;;;20.75;8.98;;;13.20;99.90;;;;;;5090749;28;20016;-65
2023/10/02 05:52:00;;;;;;;18.73;8.10;;;13.20;99.90;;;;;;5091529;28;20016;-65
2023/10/02 05:54:29;;;;;;;23.70;8.85;;;13.20;99.90;;;;;;5073713;28;20115;-65
2023/10/02 05:57:08;;;;;;;23.63;9.48;;;13.30;99.90;;;;;;5089807;28;20493;-65
2023/10/02 05:59:44;;;;;;;20.92;8.60;;;13.40;99.90;;;;;;5094350;28;20028;-64
2023/10/02 06:02:11;;;;;;;21.50;8.95;;;13.40;99.90;;;;;;5086079;28;20019;-64
2023/10/02 06:04:37;;;;;;;22.00;8.95;;;13.50;99.90;;;;;;5092204;28;20043;-67
2023/10/02 06:07:03;;;;;;;20.25;7.57;;;13.60;99.90;;;;;;5093324;28;20012;-65
2023/10/02 06:09:43;;;;;;;23.65;8.50;;;13.60;99.90;;;;;;5092914;28;20031;-64
2023/10/02 06:12:11;;;;;;;18.30;7.93;;;13.70;99.90;;;;;;5086090;28;20077;-64
2023/10/02 06:14:42;;;;;;;19.35;8.25;;;13.70;99.90;;;;;;5070357;28;20485;-64
2023/10/02 06:17:11;;;;;;;18.40;8.18;;;13.70;99.90;;;;;;5085113;28;20681;-65
2023/10/02 06:19:44;;;;;;;21.45;8.10;;;13.80;99.90;;;;;;5093842;28;20036;-66
2023/10/02 06:22:13;;;;;;;20.42;8.15;;;13.90;99.90;;;;;;5092133;28;20051;-67
2023/10/02 06:24:39;;;;;;;18.50;7.90;;;14.00;99.90;;;;;;5083407;28;20032;-65
2023/10/02 06:27:07;;;;;;;18.73;8.57;;;14.00;99.90;;;;;;5093129;28;20433;-65
2023/10/02 06:29:37;;;;;;;22.10;8.38;;;14.10;99.90;;;;;;5088580;28;20111;-65
2023/10/02 06:32:11;;;;;;;18.80;7.90;;;14.30;99.90;;;;;;5091557;28;20019;-64
2023/10/02 06:34:38;;;;;;;22.90;8.30;;;14.30;99.90;;;;;;5061955;28;20047;-65
2023/10/02 06:37:13;;;;;;;21.65;8.77;;;14.50;99.90;;;;;;5087762;28;20024;-65
2023/10/02 06:39:44;;;;;;;22.05;8.23;;;14.60;99.90;;;;;;5079108;28;20081;-66
2023/10/02 06:42:14;;;;;;;18.58;8.00;;;14.80;99.90;;;;;;5085703;28;20019;-65
2023/10/02 06:44:52;;;;;;;20.60;8.35;;;15.00;99.90;;;;;;5087316;28;20448;-65
2023/10/02 06:47:39;;;;;;;21.17;8.63;;;15.10;99.90;;;;;;5090094;28;20020;-65
2023/10/02 06:50:27;;;;;;;20.27;7.68;;;15.20;99.90;;;;;;5086731;28;20398;-65
2023/10/02 06:52:51;;;;;;;23.15;8.18;;;15.70;99.90;;;;;;5087468;28;20024;-65
2023/10/02 06:55:24;;;;;;;16.20;6.35;;;16.00;99.90;;;;;;5086107;28;20029;-65
2023/10/02 06:57:52;;;;;;;18.77;7.10;;;16.60;99.90;;;;;;5090660;28;20405;-60
2023/10/02 07:00:22;;;;;;;14.95;6.43;;;17.20;99.90;;;;;;5083160;28;20028;-65
2023/10/02 07:02:58;;;;;;;18.90;6.75;;;17.30;99.90;;;;;;5089950;28;20032;-64
2023/10/02 07:05:32;;;;;;;19.67;7.60;;;17.40;99.90;;;;;;5085545;28;20032;-64
2023/10/02 07:08:22;;;;;;;17.60;7.43;;;17.30;99.90;;;;;;5089400;28;20036;-65
2023/10/02 07:10:48;;;;;;;18.02;7.18;;;17.20;99.90;;;;;;5091169;28;20534;-66
2023/10/02 07:13:21;;;;;;;19.90;7.55;;;17.00;99.90;;;;;;5083518;28;20020;-66
2023/10/02 07:15:53;;;;;;;15.80;7.03;;;16.90;99.90;;;;;;5064644;28;20124;-65
2023/10/02 07:18:19;;;;;;;19.02;7.18;;;16.80;99.90;;;;;;5070778;28;20032;-65
2023/10/02 07:20:49;;;;;;;22.10;8.43;;;16.80;99.90;;;;;;5085581;28;20016;-65
2023/10/02 07:23:19;;;;;;;16.45;6.70;;;16.70;99.90;;;;;;5087728;28;20102;-64
2023/10/02 07:25:50;;;;;;;21.08;8.10;;;16.80;99.90;;;;;;5086789;28;20020;-66
2023/10/02 07:28:19;;;;;;;17.70;7.60;;;16.80;99.90;;;;;;5088009;28;20045;-64
2023/10/02 07:30:46;;;;;;;18.63;7.82;;;16.90;99.90;;;;;;5088114;28;20024;-64
2023/10/02 07:33:12;;;;;;;20.10;7.50;;;17.00;99.90;;;;;;5085073;28;20020;-65
2023/10/02 07:35:37;;;;;;;18.35;7.32;;;17.00;99.90;;;;;;5087555;28;20577;-64
2023/10/02 07:38:08;;;;;;;20.13;7.65;;;17.10;99.90;;;;;;5089316;28;20053;-66
2023/10/02 07:40:46;;;;;;;17.15;7.40;;;17.20;99.90;;;;;;5069465;28;20512;-65
2023/10/02 07:43:18;;;;;;;19.13;8.45;;;17.30;99.90;;;;;;5091438;28;20042;-64
2023/10/02 07:46:02;;;;;;;17.63;7.20;;;17.30;99.90;;;;;;5088933;28;20039;-64
2023/10/02 07:48:33;;;;;;;16.42;6.95;;;17.50;99.90;;;;;;5085922;28;20027;-65
2023/10/02 07:51:00;;;;;;;20.35;7.00;;;17.60;99.90;;;;;;5092538;28;20103;-65
2023/10/02 07:53:38;;;;;;;17.50;7.47;;;17.50;99.90;;;;;;5091110;28;20046;-65
2023/10/02 07:56:11;;;;;;;19.50;8.02;;;17.60;99.90;;;;;;5092964;28;20077;-65
2023/10/02 07:58:37;;;;;;;16.05;7.47;;;17.60;99.90;;;;;;5095725;28;20485;-64
2023/10/02 08:01:11;;;;;;;16.02;7.15;;;17.60;99.90;;;;;;5092358;28;20118;-65
2023/10/02 08:03:49;;;;;;;;;;;17.60;99.90;;;;;;5074323;28;20031;-62
2023/10/02 08:06:21;;;;;;;18.17;6.88;;;17.80;99.90;;;;;;5093287;28;19965;-66
2023/10/02 08:11:41;;;;;;;17.35;6.93;;;18.00;99.90;;;;;;5090007;28;20031;-65
2023/10/02 08:14:29;;;;;;;17.95;7.68;;;18.10;99.90;;;;;;5095929;28;20016;-65
2023/10/02 08:17:00;;;;;;;18.58;8.02;;;18.30;99.90;;;;;;5071218;28;20497;-64
2023/10/02 08:19:26;;;;;;;16.85;7.60;;;18.40;99.90;;;;;;5089311;28;20126;-64
2023/10/02 08:21:53;;;;;;;21.48;7.70;;;18.40;99.90;;;;;;5068555;28;20027;-61
2023/10/02 08:24:19;;;;;;;17.80;7.15;;;18.40;99.90;;;;;;5086945;28;20430;-65
2023/10/02 08:26:45;;;;;;;16.92;7.43;;;18.50;99.90;;;;;;5088429;28;20046;-64
2023/10/02 08:29:17;;;;;;;19.48;7.25;;;18.60;99.90;;;;;;5087022;28;20393;-64
2023/10/02 08:31:48;;;;;;;18.25;7.75;;;18.70;99.90;;;;;;5089521;28;20021;-64
2023/10/02 08:34:19;;;;;;;17.88;7.03;;;18.80;99.90;;;;;;5084257;28;20076;-65
2023/10/02 08:37:04;;;;;;;16.13;7.32;;;18.90;99.90;;;;;;5084684;28;20020;-66
2023/10/02 08:39:32;;;;;;;18.60;8.25;;;19.10;99.90;;;;;;5082912;28;20024;-65
2023/10/02 08:41:59;;;;;;;17.02;6.53;;;19.30;99.90;;;;;;5089309;28;20064;-66
2023/10/02 08:44:25;;;;;;;17.55;7.38;;;19.40;99.90;;;;;;5080878;28;20066;-64
2023/10/02 08:46:50;;;;;;;19.40;6.78;;;19.50;99.90;;;;;;5064442;28;20058;-66
2023/10/02 08:49:17;;;;;;;16.88;7.57;;;19.60;99.90;;;;;;5084949;28;20039;-65
2023/10/02 08:51:48;;;;;;;19.83;7.95;;;19.70;99.90;;;;;;5089032;28;20071;-65
2023/10/02 08:54:15;;;;;;;19.38;7.90;;;20.00;99.90;;;;;;5071405;28;20467;-65
2023/10/02 08:56:44;;;;;;;21.90;7.47;;;20.20;99.90;;;;;;5086573;28;20042;-66
2023/10/02 08:59:26;;;;;;;18.02;8.30;;;20.50;99.90;;;;;;5088181;28;20401;-65
2023/10/02 09:02:13;;;;;;;16.08;7.10;;;21.10;99.90;;;;;;5084480;28;20032;-62
2023/10/02 09:04:41;;;;;;;18.88;7.63;;;21.90;99.90;;;;;;5087548;28;20020;-67
2023/10/02 09:07:25;;;;;;;16.90;7.07;;;22.00;99.90;;;;;;5085102;28;20374;-65
2023/10/02 09:10:18;;;;;;;22.02;8.32;;;22.50;99.90;;;;;;5083159;28;20099;-63
2023/10/02 09:12:51;;;;;;;21.05;8.55;;;22.80;99.90;;;;;;5086785;28;20024;-66
2023/10/02 09:15:30;;;;;;;17.40;8.65;;;23.00;99.90;;;;;;5078965;28;20117;-66
2023/10/02 09:17:57;;;;;;;15.65;8.05;;;23.60;99.90;;;;;;5063330;28;20181;-65
2023/10/02 09:20:38;;;;;;;18.38;8.23;;;23.90;99.90;;;;;;5090947;28;20024;-66
2023/10/02 09:23:08;;;;;;;19.70;7.97;;;24.00;99.90;;;;;;5087026;28;20020;-65
2023/10/02 09:25:37;;;;;;;17.15;7.97;;;23.80;99.90;;;;;;5088763;28;21770;-67
2023/10/02 09:28:13;;;;;;;18.10;7.88;;;24.10;99.90;;;;;;5094799;28;20012;-66
2023/10/02 09:30:41;;;;;;;20.45;8.40;;;24.60;99.90;;;;;;5086849;28;20581;-66
2023/10/02 09:33:10;;;;;;;19.17;8.75;;;24.80;99.60;;;;;;5086140;28;20474;-65
2023/10/02 09:35:40;;;;;;;18.60;8.07;;;24.80;99.90;;;;;;5093057;28;20017;-66
2023/10/02 09:38:08;;;;;;;23.83;8.65;;;24.70;99.90;;;;;;5093788;28;20023;-66
2023/10/02 09:43:31;;;;;;;18.75;8.98;;;24.70;99.50;;;;;;5090963;28;20082;-66
2023/10/02 09:46:06;;;;;;;16.98;7.95;;;24.80;99.90;;;;;;5086916;28;20028;-65
2023/10/02 09:48:47;;;;;;;20.25;8.77;;;25.10;99.90;;;;;;5089520;28;20116;-67
2023/10/02 09:51:25;;;;;;;18.27;8.38;;;25.10;99.40;;;;;;5087267;28;20393;-67
2023/10/02 09:54:08;;;;;;;14.70;7.10;;;25.00;98.80;;;;;;5089298;28;20040;-63
2023/10/02 09:56:54;;;;;;;17.58;7.93;;;25.00;98.80;;;;;;5086507;28;20044;-67
2023/10/02 09:59:23;;;;;;;21.90;8.20;;;25.10;99.20;;;;;;5085620;28;20509;-65
2023/10/02 10:02:07;;;;;;;19.38;8.23;;;25.00;99.90;;;;;;5091372;28;20051;-67
2023/10/02 10:10:52;;;;;;;19.38;8.07;;;24.40;99.90;;;;;;5096595;28;20035;-65
2023/10/02 10:13:46;;;;;;;16.95;7.47;;;24.40;99.90;;;;;;5089171;28;20114;-64
2023/10/02 10:16:18;;;;;;;21.45;8.80;;;24.30;99.90;;;;;;5071968;28;20054;-64
2023/10/02 10:21:56;;;;;;;18.92;8.35;;;24.40;99.90;;;;;;5097750;28;20032;-63
2023/10/02 10:24:58;;;;;;;19.67;8.00;;;24.20;99.90;;;;;;5093596;28;20020;-65
2023/10/02 10:27:43;;;;;;;22.98;8.32;;;24.40;99.90;;;;;;5095272;28;20085;-64
2023/10/02 10:33:25;;;;;;;;;;;24.50;99.90;;;;;;5092120;28;20070;-64
2023/10/02 10:35:48;;;;;;;18.48;8.63;;;24.60;99.90;;;;;;5093550;28;19991;-65
2023/10/02 10:38:28;;;;;;;22.13;8.48;;;24.50;99.90;;;;;;5088639;28;20487;-65
2023/10/02 10:41:14;;;;;;;22.65;8.82;;;24.50;99.90;;;;;;5092909;28;21373;-65
2023/10/02 10:46:21;;;;;;;19.98;8.65;;;24.30;99.90;;;;;;5089124;28;20097;-68
2023/10/02 10:49:19;;;;;;;22.83;9.75;;;24.40;99.90;;;;;;5087014;28;20036;-65
2023/10/02 10:51:52;;;;;;;17.75;7.63;;;24.50;99.90;;;;;;5086688;28;20480;-66
2023/10/02 10:54:30;;;;;;;20.45;8.85;;;24.40;99.90;;;;;;5092876;28;20022;-65
2023/10/02 10:57:18;;;;;;;17.08;8.13;;;24.20;99.90;;;;;;5093777;28;20043;-65
2023/10/02 10:59:45;;;;;;;18.13;7.50;;;24.30;99.90;;;;;;5092648;28;20412;-64
2023/10/02 11:02:17;;;;;;;17.60;8.18;;;24.20;99.90;;;;;;5097519;28;20106;-66
2023/10/02 11:04:50;;;;;;;19.83;8.70;;;24.30;99.90;;;;;;5095958;28;20028;-65
2023/10/02 11:07:19;;;;;;;22.73;9.68;;;24.30;99.90;;;;;;5087305;28;20020;-65
2023/10/02 11:10:20;;;;;;;20.65;8.05;;;24.40;99.90;;;;;;5091183;28;20039;-65
2023/10/02 11:12:57;;;;;;;22.15;9.13;;;24.40;99.90;;;;;;5089974;28;20027;-64
2023/10/02 11:18:20;;;;;;;21.50;9.20;;;24.40;99.90;;;;;;5074238;28;20408;-66
2023/10/02 11:20:55;;;;;;;18.70;7.95;;;24.50;99.90;;;;;;5094244;28;20035;-65
2023/10/02 11:23:40;;;;;;;20.77;8.23;;;24.60;99.90;;;;;;5092762;28;20366;-66
2023/10/02 11:26:12;;;;;;;20.65;8.40;;;24.60;99.90;;;;;;5093616;28;20012;-65
2023/10/02 11:28:39;;;;;;;20.65;9.07;;;24.60;99.90;;;;;;5092309;28;20666;-65
2023/10/02 11:31:31;;;;;;;22.92;8.93;;;24.70;99.90;;;;;;5093727;28;20107;-65
2023/10/02 11:34:01;;;;;;;19.80;8.93;;;24.70;99.90;;;;;;5095986;28;20085;-66
2023/10/02 11:36:29;;;;;;;17.33;8.43;;;24.70;99.90;;;;;;5098867;28;20024;-65
2023/10/02 11:38:56;;;;;;;18.17;8.27;;;24.50;99.90;;;;;;5091928;28;20472;-67
2023/10/02 11:41:21;;;;;;;21.77;9.00;;;24.50;99.90;;;;;;5088412;28;20482;-65
2023/10/02 11:43:48;;;;;;;20.50;8.60;;;24.40;99.90;;;;;;5087604;28;20047;-67
2023/10/02 11:46:14;;;;;;;21.77;9.05;;;24.50;99.90;;;;;;5089916;28;20035;-65
2023/10/02 11:48:40;;;;;;;26.15;8.75;;;24.50;99.90;;;;;;5092000;28;20069;-65
2023/10/02 11:51:07;;;;;;;23.15;9.30;;;24.50;99.90;;;;;;5085947;28;20019;-65
2023/10/02 11:53:33;;;;;;;22.70;8.98;;;24.50;99.90;;;;;;5087813;28;20024;-66
2023/10/02 11:55:59;;;;;;;17.63;8.40;;;24.50;99.90;;;;;;5092530;28;20031;-65
2023/10/02 11:58:25;;;;;;;20.55;8.15;;;24.50;99.90;;;;;;5094507;28;20015;-65
2023/10/02 12:00:51;;;;;;;20.05;8.25;;;24.50;99.90;;;;;;5093801;28;20824;-65
2023/10/02 12:03:18;;;;;;;20.58;8.15;;;24.50;99.90;;;;;;5091313;28;20103;-65
2023/10/02 12:05:43;;;;;;;25.05;9.05;;;24.60;99.90;;;;;;5097307;28;20024;-64
2023/10/02 12:08:09;;;;;;;19.00;8.00;;;24.60;99.90;;;;;;5092545;28;20012;-65
2023/10/02 12:10:39;;;;;;;19.23;8.55;;;24.60;99.90;;;;;;5098376;28;20023;-65
2023/10/02 12:13:06;;;;;;;21.25;9.95;;;24.60;99.90;;;;;;5098550;28;20102;-64
2023/10/02 12:15:31;;;;;;;18.48;8.32;;;24.60;99.90;;;;;;5088370;28;20025;-65
2023/10/02 12:17:57;;;;;;;19.00;8.13;;;24.60;99.90;;;;;;5090794;27;20069;-62
2023/10/02 12:20:22;;;;;;;19.77;8.48;;;24.60;99.90;;;;;;5098057;28;20026;-64
2023/10/02 12:22:48;;;;;;;18.60;8.30;;;24.70;99.90;;;;;;5094944;28;20512;-65
2023/10/02 12:25:15;;;;;;;19.85;8.07;;;24.70;99.90;;;;;;5097236;28;20031;-64
2023/10/02 12:27:41;;;;;;;20.55;9.18;;;24.80;99.90;;;;;;5094304;28;20024;-64
2023/10/02 12:30:11;;;;;;;21.17;8.30;;;24.80;99.90;;;;;;5097593;28;20011;-65
2023/10/02 12:32:37;;;;;;;19.73;7.93;;;24.80;99.90;;;;;;5089285;28;20012;-65
2023/10/02 12:35:05;;;;;;;21.88;8.65;;;24.90;99.90;;;;;;5089520;28;20024;-63
2023/10/02 12:37:31;;;;;;;18.05;8.10;;;24.80;99.90;;;;;;5085371;28;20063;-65
2023/10/02 12:39:57;;;;;;;21.75;9.00;;;24.80;99.90;;;;;;5071840;28;20020;-67
2023/10/02 12:42:23;;;;;;;22.27;8.70;;;24.80;99.90;;;;;;5094847;28;20054;-64
2023/10/02 12:44:48;;;;;;;19.10;7.82;;;24.80;99.90;;;;;;5090271;28;20035;-64
2023/10/02 12:47:15;;;;;;;18.10;8.77;;;24.70;99.60;;;;;;5099518;28;20484;-65
2023/10/02 12:49:41;;;;;;;20.45;9.23;;;24.70;99.90;;;;;;5088243;28;20098;-64
2023/10/02 12:52:06;;;;;;;17.77;7.55;;;24.70;99.90;;;;;;5084304;28;20165;-65
2023/10/02 12:54:32;;;;;;;20.85;7.88;;;24.70;99.90;;;;;;5082328;28;20034;-65
2023/10/02 12:56:58;;;;;;;22.13;9.05;;;24.80;99.90;;;;;;5089533;28;20027;-65
2023/10/02 12:59:24;;;;;;;21.90;8.65;;;24.80;99.90;;;;;;5095684;28;20030;-65
2023/10/02 13:01:50;;;;;;;19.00;8.40;;;24.80;99.90;;;;;;5092621;28;20019;-65
2023/10/02 13:04:15;;;;;;;19.75;8.98;;;24.80;99.90;;;;;;5095864;28;20043;-65
2023/10/02 13:06:45;;;;;;;20.38;7.97;;;24.80;99.90;;;;;;5094133;28;20438;-63
2023/10/02 13:09:14;;;;;;;17.30;8.20;;;24.90;99.90;;;;;;5086311;28;20461;-65
2023/10/02 13:11:40;;;;;;;19.17;9.10;;;24.90;99.90;;;;;;5088764;28;20015;-65
2023/10/02 13:14:08;;;;;;;21.92;9.52;;;25.00;99.90;;;;;;5097743;28;20023;-64
2023/10/02 13:16:36;;;;;;;23.52;10.15;;;25.00;99.90;;;;;;5098551;28;20497;-65
2023/10/02 13:19:02;;;;;;;20.55;8.60;;;25.10;99.90;;;;;;5091850;28;20063;-65
2023/10/02 13:21:28;;;;;;;25.02;9.43;;;25.10;99.90;;;;;;5093219;28;20051;-65
2023/10/02 13:23:54;;;;;;;21.50;8.68;;;25.10;99.80;;;;;;5089169;28;20508;-61
2023/10/02 13:26:19;;;;;;;23.23;8.68;;;25.10;99.90;;;;;;5087888;28;20046;-65
2023/10/02 13:28:48;;;;;;;18.80;8.25;;;25.20;99.90;;;;;;5092035;28;20078;-66
2023/10/02 13:31:17;;;;;;;19.70;9.10;;;25.30;99.90;;;;;;5091551;28;20020;-66
2023/10/02 13:33:47;;;;;;;20.25;8.93;;;25.30;99.90;;;;;;5084667;28;20565;-65
2023/10/02 13:36:14;;;;;;;22.08;9.30;;;25.30;99.90;;;;;;5085343;28;20028;-65
2023/10/02 13:38:41;;;;;;;19.23;8.43;;;25.40;99.90;;;;;;5087126;28;20362;-66
2023/10/02 13:41:10;;;;;;;19.90;8.40;;;25.50;99.90;;;;;;5087781;28;20020;-66
2023/10/02 13:43:44;;;;;;;21.48;8.50;;;25.60;99.90;;;;;;5080616;28;20056;-65
2023/10/02 13:46:17;;;;;;;19.52;8.63;;;25.60;99.90;;;;;;5086895;28;20074;-65
2023/10/02 13:48:44;;;;;;;17.40;7.47;;;25.60;99.90;;;;;;5085459;28;20037;-66
2023/10/02 13:51:10;;;;;;;17.80;8.15;;;25.70;99.90;;;;;;5085179;28;20072;-65
2023/10/02 13:53:37;;;;;;;21.65;9.30;;;25.80;99.90;;;;;;5088193;28;20038;-65